createdAt,value
2022-11-22T15:57:55.962Z,21.46
2022-11-22T16:00:27.649Z,21.50
2022-11-22T16:02:57.309Z,21.51
2022-11-22T16:06:07.070Z,21.56
2022-11-22T16:08:21.534Z,21.53
2022-11-22T16:10:51.067Z,21.60
2022-11-22T16:13:20.702Z,21.85
2022-11-22T16:16:16.168Z,22.25
2022-11-22T16:18:43.546Z,25.62
2022-11-22T16:21:10.582Z,24.17
2022-11-22T16:23:40.814Z,23.31
2022-11-22T16:26:25.696Z,24.22
2022-11-22T16:28:53.568Z,23.98
2022-11-22T16:33:51.742Z,23.56
2022-11-22T16:36:19.075Z,24.75
2022-11-22T16:38:46.293Z,24.78
2022-11-22T16:42:42.270Z,23.62
2022-11-22T16:45:20.218Z,23.23
2022-11-22T16:47:54.560Z,23.02
2022-11-22T16:50:33.302Z,22.77
2022-11-22T16:53:02.682Z,22.54
2022-11-22T16:55:29.545Z,22.40
2022-11-22T16:57:56.360Z,22.34
2022-11-22T17:00:22.875Z,22.32
2022-11-22T17:02:49.358Z,22.28
2022-11-22T17:05:17.538Z,22.23
2022-11-22T17:07:44.086Z,22.11
2022-11-22T17:10:10.775Z,22.05
2022-11-22T17:12:37.362Z,22.05
2022-11-22T17:15:04.115Z,22.04
2022-11-22T17:17:30.610Z,21.95
2022-11-22T17:19:58.048Z,21.97
2022-11-22T17:22:24.621Z,21.93
2022-11-22T17:24:51.317Z,21.89
2022-11-22T17:27:17.760Z,21.83
2022-11-22T17:29:51.600Z,21.80
2022-11-22T17:32:18.650Z,21.76
2022-11-22T17:34:45.185Z,21.75
2022-11-22T17:37:12.664Z,21.70
2022-11-22T17:39:39.574Z,21.64
2022-11-22T17:42:06.101Z,21.64
2022-11-22T17:44:32.682Z,21.62
2022-11-22T17:46:59.131Z,21.57
2022-11-22T17:49:25.615Z,21.56
2022-11-22T17:51:52.085Z,21.52
2022-11-22T17:54:18.599Z,21.54
2022-11-22T17:56:45.029Z,21.53
2022-11-22T17:59:11.495Z,21.53
2022-11-22T18:01:38.025Z,21.48
2022-11-22T18:04:04.633Z,21.45
2022-11-22T18:06:31.379Z,21.44
2022-11-22T18:08:58.404Z,21.46
2022-11-22T18:11:24.857Z,21.44
2022-11-22T18:13:51.291Z,21.44
2022-11-22T18:16:18.383Z,21.42
2022-11-22T18:19:00.781Z,21.43
2022-11-22T18:21:32.133Z,21.40
2022-11-22T18:23:59.458Z,21.40
2022-11-22T18:26:42.154Z,21.39
2022-11-22T18:31:56.941Z,21.34
2022-11-22T18:34:24.231Z,21.34
2022-11-22T18:36:57.637Z,21.33
2022-11-22T18:39:29.137Z,21.33
2022-11-22T18:41:55.750Z,21.34
2022-11-22T18:44:22.265Z,21.32
2022-11-22T18:46:48.735Z,21.33
2022-11-22T18:49:15.327Z,21.29
2022-11-22T18:51:41.869Z,21.29
2022-11-22T18:54:09.971Z,21.31
2022-11-22T18:56:39.954Z,21.29
2022-11-22T18:59:08.014Z,21.28
2022-11-22T19:01:34.661Z,21.27
2022-11-22T19:04:02.841Z,21.26
2022-11-22T19:06:29.454Z,21.24
2022-11-22T19:08:55.941Z,21.26
2022-11-22T19:11:22.542Z,21.25
2022-11-22T19:13:49.038Z,21.24
2022-11-22T19:16:17.684Z,21.25
2022-11-22T19:18:45.257Z,21.24
2022-11-22T19:21:16.925Z,21.25
2022-11-22T19:23:43.715Z,21.24
2022-11-22T19:26:16.183Z,21.23
2022-11-22T19:28:42.873Z,21.23
2022-11-22T19:31:11.530Z,21.21
2022-11-22T19:33:38.147Z,21.19
2022-11-22T19:36:16.100Z,21.21
2022-11-22T19:38:43.331Z,21.21
2022-11-22T19:41:15.128Z,21.21
2022-11-22T19:43:41.639Z,21.21
2022-11-22T19:46:08.108Z,21.20
2022-11-22T19:48:35.824Z,21.20
2022-11-22T19:51:11.107Z,21.20
2022-11-22T19:53:38.870Z,21.20
2022-11-22T19:56:09.158Z,21.19
2022-11-22T19:58:35.723Z,21.19
2022-11-22T20:01:05.475Z,21.18
2022-11-22T20:03:33.641Z,21.19
2022-11-22T20:06:01.591Z,21.18
2022-11-22T20:08:28.832Z,21.19
2022-11-22T20:11:02.961Z,21.17
2022-11-22T20:13:32.156Z,21.18
2022-11-22T20:15:58.794Z,21.16
2022-11-22T20:18:25.270Z,21.18
2022-11-22T20:20:51.784Z,21.16
2022-11-22T20:23:18.236Z,21.16
2022-11-22T20:25:44.680Z,21.18
2022-11-22T20:28:11.140Z,21.15
2022-11-22T20:30:37.636Z,21.16
2022-11-22T20:33:04.102Z,21.16
2022-11-22T20:35:30.547Z,21.16
2022-11-22T20:37:57.027Z,21.15
2022-11-22T20:40:23.522Z,21.14
2022-11-22T20:42:49.986Z,21.16
2022-11-22T20:45:16.468Z,21.15
2022-11-22T20:47:43.252Z,21.14
2022-11-22T20:50:10.003Z,21.14
2022-11-22T20:52:36.475Z,21.14
2022-11-22T20:55:05.328Z,21.16
2022-11-22T20:57:31.994Z,21.13
2022-11-22T20:59:58.455Z,21.16
2022-11-22T21:02:24.931Z,21.14
2022-11-22T21:04:51.453Z,21.15
2022-11-22T21:07:17.926Z,21.14
2022-11-22T21:09:44.472Z,21.14
2022-11-22T21:12:10.941Z,21.14
2022-11-22T21:14:37.419Z,21.14
2022-11-22T21:17:29.946Z,21.14
2022-11-22T21:19:50.526Z,21.14
2022-11-22T21:22:17.002Z,21.13
2022-11-22T21:24:43.480Z,21.12
2022-11-22T21:27:09.961Z,21.12
2022-11-22T21:29:36.504Z,21.13
2022-11-22T21:32:03.026Z,21.14
2022-11-22T21:34:29.737Z,21.13
2022-11-22T21:36:56.377Z,21.13
2022-11-22T21:39:22.871Z,21.14
2022-11-22T21:41:49.361Z,21.14
2022-11-22T21:44:15.850Z,21.14
2022-11-22T21:46:43.689Z,21.13
2022-11-22T21:49:10.144Z,21.11
2022-11-22T21:51:36.644Z,21.12
2022-11-22T21:54:04.258Z,21.13
2022-11-22T21:56:31.406Z,21.12
2022-11-22T21:58:57.937Z,21.12
2022-11-22T22:01:25.191Z,21.12
2022-11-22T22:03:52.425Z,21.14
2022-11-22T22:06:19.269Z,21.13
2022-11-22T22:08:45.866Z,21.12
2022-11-22T22:11:12.704Z,21.12
2022-11-22T22:13:39.224Z,21.13
2022-11-22T22:16:12.744Z,21.12
